createdAt,value
2022-09-01T00:00:07.776Z,100763.39
2022-09-01T00:02:55.576Z,100763.95
2022-09-01T00:05:22.891Z,100762.48
2022-09-01T00:07:49.686Z,100757.92
2022-09-01T00:10:17.393Z,100760.99
2022-09-01T00:12:46.525Z,100758.34
2022-09-01T00:15:17.128Z,100757.41
2022-09-01T00:17:44.185Z,100761.73
2022-09-01T00:20:10.908Z,100761.48
2022-09-01T00:22:37.644Z,100767.90
2022-09-01T00:25:05.890Z,100762.36
2022-09-01T00:27:32.569Z,100762.13
2022-09-01T00:30:00.422Z,100759.98
2022-09-01T00:32:28.038Z,100765.42
2022-09-01T00:34:55.151Z,100765.36
2022-09-01T00:37:22.010Z,100759.70
2022-09-01T00:39:48.780Z,100760.18
2022-09-01T00:42:15.561Z,100762.55
2022-09-01T00:44:42.438Z,100761.19
2022-09-01T00:47:09.730Z,100763.52
2022-09-01T00:49:42.979Z,100760.75
2022-09-01T00:52:20.603Z,100758.23
2022-09-01T00:54:50.951Z,100756.57
2022-09-01T00:57:18.163Z,100759.73
2022-09-01T01:00:24.555Z,100762.23
2022-09-01T01:02:55.270Z,100754.02
2022-09-01T01:05:30.934Z,100753.95
2022-09-01T01:07:59.314Z,100746.88
2022-09-01T01:10:32.100Z,100756.02
2022-09-01T01:13:04.164Z,100755.90
2022-09-01T01:15:31.212Z,100752.88
2022-09-01T01:17:58.992Z,100749.89
2022-09-01T01:20:47.635Z,100751.61
2022-09-01T01:23:39.710Z,100749.16
2022-09-01T01:26:09.842Z,100751.50
2022-09-01T01:28:42.582Z,100748.30
2022-09-01T01:31:18.288Z,100752.81
2022-09-01T01:33:50.710Z,100751.27
2022-09-01T01:36:25.310Z,100753.67
2022-09-01T01:38:53.307Z,100755.20
2022-09-01T01:41:21.495Z,100750.30
2022-09-01T01:43:48.272Z,100748.73
2022-09-01T01:46:18.594Z,100750.48
2022-09-01T01:48:46.899Z,100746.91
2022-09-01T01:51:20.656Z,100750.24
2022-09-01T01:53:52.013Z,100747.86
2022-09-01T01:56:20.072Z,100743.77
2022-09-01T01:58:46.922Z,100745.61
2022-09-01T02:01:17.020Z,100745.26
2022-09-01T02:03:44.203Z,100745.05
2022-09-01T02:06:11.556Z,100746.38
2022-09-01T02:08:40.657Z,100748.23
2022-09-01T02:11:08.419Z,100746.85
2022-09-01T02:13:35.575Z,100742.40
2022-09-01T02:16:12.260Z,100732.22
2022-09-01T02:18:47.674Z,100738.71
2022-09-01T02:21:19.871Z,100740.67
2022-09-01T02:23:50.100Z,100740.75
2022-09-01T02:26:18.556Z,100738.38
2022-09-01T02:28:53.616Z,100740.95
2022-09-01T02:31:27.635Z,100732.67
2022-09-01T02:33:54.883Z,100738.27
2022-09-01T02:36:24.596Z,100737.80
2022-09-01T02:38:53.138Z,100737.20
2022-09-01T02:41:26.580Z,100737.82
2022-09-01T02:43:53.574Z,100736.49
2022-09-01T02:46:22.966Z,100738.02
2022-09-01T02:48:52.549Z,100739.50
2022-09-01T02:51:24.725Z,100740.38
2022-09-01T02:53:52.807Z,100745.80
2022-09-01T02:56:22.304Z,100745.66
2022-09-01T02:58:52.837Z,100747.36
2022-09-01T03:01:25.299Z,100743.23
2022-09-01T03:03:59.125Z,100742.25
2022-09-01T03:06:27.705Z,100742.29
2022-09-01T03:08:59.713Z,100736.10
2022-09-01T03:11:29.495Z,100741.44
2022-09-01T03:13:58.421Z,100739.20
2022-09-01T03:16:25.426Z,100740.67
2022-09-01T03:18:52.898Z,100741.34
2022-09-01T03:21:20.255Z,100734.35
2022-09-01T03:23:48.845Z,100737.70
2022-09-01T03:26:18.347Z,100736.61
2022-09-01T03:28:46.204Z,100742.75
2022-09-01T03:31:13.061Z,100748.85
2022-09-01T03:33:41.650Z,100746.28
2022-09-01T03:36:18.739Z,100745.80
2022-09-01T03:38:48.241Z,100746.92
2022-09-01T03:41:17.860Z,100747.17
2022-09-01T03:43:47.243Z,100749.73
2022-09-01T03:46:20.871Z,100740.75
2022-09-01T03:48:51.510Z,100749.98
2022-09-01T03:51:22.137Z,100750.10
2022-09-01T03:53:53.737Z,100750.89
2022-09-01T03:56:23.604Z,100752.70
2022-09-01T03:58:52.602Z,100755.00
2022-09-01T04:01:19.735Z,100754.64
2022-09-01T04:03:48.550Z,100753.66
2022-09-01T04:06:24.274Z,100756.84
2022-09-01T04:09:02.108Z,100737.35
2022-09-01T04:11:34.069Z,100749.45
2022-09-01T04:14:01.513Z,100750.98
2022-09-01T04:16:50.984Z,100750.80
2022-09-01T04:19:25.491Z,100751.24
2022-09-01T04:21:55.922Z,100753.53
2022-09-01T04:24:27.429Z,100750.44
2022-09-01T04:26:58.078Z,100755.95
2022-09-01T04:29:28.800Z,100755.59
2022-09-01T04:32:03.311Z,100756.23
2022-09-01T04:34:38.174Z,100756.07
2022-09-01T04:37:12.471Z,100754.50
2022-09-01T04:39:50.350Z,100758.46
2022-09-01T04:42:23.481Z,100756.27
2022-09-01T04:44:52.927Z,100754.05
2022-09-01T04:47:29.450Z,100753.12
2022-09-01T04:50:00.091Z,100754.77
2022-09-01T04:52:27.952Z,100753.48
2022-09-01T04:54:55.008Z,100756.76
2022-09-01T04:57:22.567Z,100756.71
2022-09-01T04:59:49.632Z,100757.67
2022-09-01T05:02:16.542Z,100755.30
2022-09-01T05:04:46.499Z,100760.91
2022-09-01T05:07:18.452Z,100748.21
2022-09-01T05:09:45.509Z,100764.81
2022-09-01T05:12:31.191Z,100766.18
2022-09-01T05:14:58.448Z,100765.52
2022-09-01T05:17:28.804Z,100762.90
2022-09-01T05:19:56.541Z,100761.10
2022-09-01T05:22:23.407Z,100757.88
2022-09-01T05:25:04.405Z,100762.08
2022-09-01T05:27:31.813Z,100763.09
2022-09-01T05:30:00.820Z,100763.30
2022-09-01T05:32:28.206Z,100759.66
2022-09-01T05:34:56.459Z,100763.31
2022-09-01T05:37:23.524Z,100764.40
2022-09-01T05:39:52.020Z,100763.73
2022-09-01T05:42:19.465Z,100766.08
2022-09-01T05:44:47.526Z,100772.95
2022-09-01T05:47:21.365Z,100771.04
2022-09-01T05:49:50.597Z,100775.05
2022-09-01T05:52:20.147Z,100775.73
2022-09-01T05:54:48.122Z,100778.86
2022-09-01T05:57:33.732Z,100779.23
2022-09-01T06:00:13.578Z,100779.10
2022-09-01T06:02:42.366Z,100776.92
2022-09-01T06:05:15.183Z,100766.66
2022-09-01T06:07:43.836Z,100785.11
2022-09-01T06:10:12.513Z,100787.02
2022-09-01T06:12:40.803Z,100789.11
2022-09-01T06:15:15.061Z,100789.70
2022-09-01T06:17:44.430Z,100766.23
2022-09-01T06:20:11.567Z,100787.90
2022-09-01T06:22:43.434Z,100789.84
2022-09-01T06:25:10.480Z,100790.84
2022-09-01T06:27:40.605Z,100792.87
2022-09-01T06:30:22.571Z,100791.73
2022-09-01T06:33:01.758Z,100786.98
2022-09-01T06:35:29.497Z,100790.23
2022-09-01T06:37:58.116Z,100794.58
2022-09-01T06:40:46.194Z,100798.58
2022-09-01T06:43:17.190Z,100801.63
2022-09-01T06:45:53.812Z,100800.06
2022-09-01T06:48:23.165Z,100803.16
2022-09-01T06:53:39.379Z,100805.45
2022-09-01T06:56:12.876Z,100804.63
2022-09-01T06:58:44.559Z,100805.62
2022-09-01T07:01:15.452Z,100807.00
2022-09-01T07:03:43.674Z,100810.80
2022-09-01T07:09:49.914Z,100800.98
2022-09-01T07:12:40.978Z,100812.27
2022-09-01T07:17:57.938Z,100810.56
2022-09-01T07:20:28.786Z,100812.94
2022-09-01T07:23:05.716Z,100809.36
2022-09-01T07:26:01.423Z,100813.22
2022-09-01T07:28:37.276Z,100810.86
2022-09-01T07:34:37.651Z,100815.58
2022-09-01T07:39:48.473Z,100816.70
2022-09-01T07:45:58.085Z,100816.04
2022-09-01T07:51:36.425Z,100823.25
2022-09-01T07:54:05.292Z,100823.13
2022-09-01T07:56:36.263Z,100824.75
2022-09-01T07:59:07.671Z,100820.27
2022-09-01T08:01:35.571Z,100820.64
2022-09-01T08:04:03.594Z,100826.06
2022-09-01T08:06:37.903Z,100825.71
2022-09-01T08:09:06.730Z,100826.90
2022-09-01T08:12:01.154Z,100825.13
2022-09-01T08:14:25.613Z,100830.00
2022-09-01T08:16:53.397Z,100829.40
2022-09-01T08:19:20.741Z,100827.29
2022-09-01T08:22:04.052Z,100831.36
2022-09-01T08:24:47.599Z,100833.23
2022-09-01T08:27:15.393Z,100828.52
2022-09-01T08:29:43.040Z,100829.71
2022-09-01T08:32:11.118Z,100828.45
2022-09-01T08:34:38.676Z,100832.33
2022-09-01T08:37:06.444Z,100830.42
2022-09-01T08:39:33.895Z,100829.63
2022-09-01T08:42:19.634Z,100827.73
2022-09-01T08:45:05.705Z,100829.19
2022-09-01T08:47:50.453Z,100832.73
2022-09-01T08:50:23.301Z,100826.73
2022-09-01T08:53:15.708Z,100830.20
2022-09-01T08:55:46.833Z,100833.02
2022-09-01T08:58:17.579Z,100832.16
2022-09-01T09:01:07.990Z,100830.02
2022-09-01T09:03:41.172Z,100821.03
2022-09-01T09:06:37.188Z,100829.19
2022-09-01T09:09:09.361Z,100831.92
2022-09-01T09:11:50.256Z,100828.54
2022-09-01T09:14:52.317Z,100826.85
2022-09-01T09:17:25.015Z,100818.34
2022-09-01T09:19:53.608Z,100825.34
2022-09-01T09:22:21.470Z,100825.73
2022-09-01T09:25:17.483Z,100828.60
2022-09-01T09:27:48.933Z,100827.45
2022-09-01T09:30:26.957Z,100823.04
2022-09-01T09:35:53.961Z,100825.23
2022-09-01T09:38:33.330Z,100826.30
2022-09-01T09:41:18.701Z,100825.42
2022-09-01T09:43:49.286Z,100826.08
2022-09-01T09:46:25.227Z,100824.16
2022-09-01T09:49:34.535Z,100821.45
2022-09-01T09:52:02.257Z,100819.30
2022-09-01T09:54:34.643Z,100821.70
2022-09-01T09:57:14.014Z,100818.36
2022-09-01T09:59:58.147Z,100815.34
2022-09-01T10:02:43.852Z,100813.80
2022-09-01T10:05:36.464Z,100811.55
2022-09-01T10:08:10.918Z,100809.27
2022-09-01T10:10:56.378Z,100806.27
2022-09-01T10:13:31.480Z,100798.73
2022-09-01T10:16:09.255Z,100798.95
2022-09-01T10:18:44.965Z,100802.24
2022-09-01T10:21:17.636Z,100804.32
2022-09-01T10:23:45.126Z,100804.04
2022-09-01T10:26:35.816Z,100804.20
2022-09-01T10:29:19.850Z,100804.87
2022-09-01T10:31:49.493Z,100797.50
2022-09-01T10:34:23.607Z,100805.56
2022-09-01T10:36:56.712Z,100793.83
2022-09-01T10:39:28.639Z,100807.48
2022-09-01T10:42:06.970Z,100808.79
2022-09-01T10:44:55.142Z,100808.46
2022-09-01T10:47:33.481Z,100809.63
2022-09-01T10:50:14.910Z,100806.03
2022-09-01T10:52:43.284Z,100806.42
2022-09-01T10:55:41.180Z,100807.16
2022-09-01T11:01:51.155Z,100805.52
2022-09-01T11:04:22.527Z,100803.04
2022-09-01T11:07:12.060Z,100800.25
2022-09-01T11:09:43.919Z,100798.70
2022-09-01T11:12:32.124Z,100802.64
2022-09-01T11:15:35.463Z,100800.98
2022-09-01T11:18:09.461Z,100799.45
2022-09-01T11:20:40.151Z,100796.10
2022-09-01T11:23:20.186Z,100800.90
2022-09-01T11:26:26.000Z,100798.77
2022-09-01T11:28:54.538Z,100804.97
2022-09-01T11:31:41.361Z,100800.45
2022-09-01T11:34:20.707Z,100798.00
2022-09-01T11:36:52.961Z,100797.90
2022-09-01T11:39:26.514Z,100796.33
2022-09-01T11:42:09.673Z,100799.40
2022-09-01T11:44:49.203Z,100795.27
2022-09-01T11:47:37.706Z,100797.39
2022-09-01T11:50:14.925Z,100797.37
2022-09-01T11:52:52.116Z,100792.10
2022-09-01T11:55:34.110Z,100789.96
2022-09-01T11:58:03.166Z,100787.33
2022-09-01T12:00:38.519Z,100785.02
2022-09-01T12:03:25.113Z,100783.05
2022-09-01T12:06:02.099Z,100771.70
2022-09-01T12:08:39.349Z,100775.34
2022-09-01T12:11:19.997Z,100768.92
2022-09-01T12:14:11.536Z,100768.33
2022-09-01T12:16:44.369Z,100763.86
2022-09-01T12:19:24.153Z,100763.11
2022-09-01T12:22:17.510Z,100759.64
2022-09-01T12:24:47.901Z,100763.52
2022-09-01T12:27:16.358Z,100768.36
2022-09-01T12:29:44.501Z,100763.41
2022-09-01T12:32:13.770Z,100761.62
2022-09-01T12:34:41.011Z,100756.00
2022-09-01T12:37:20.390Z,100755.12
2022-09-01T12:39:50.893Z,100757.39
2022-09-01T12:42:21.333Z,100758.92
2022-09-01T12:44:55.760Z,100753.16
2022-09-01T12:47:35.405Z,100750.30
2022-09-01T12:50:11.162Z,100748.65
2022-09-01T12:52:52.456Z,100750.89
2022-09-01T12:58:12.718Z,100751.84
2022-09-01T13:01:16.215Z,100749.47
2022-09-01T13:04:10.628Z,100745.38
2022-09-01T13:06:38.460Z,100738.96
2022-09-01T13:09:06.768Z,100744.44
2022-09-01T13:14:22.068Z,100741.55
2022-09-01T13:16:49.179Z,100743.56
2022-09-01T13:19:24.058Z,100743.02
2022-09-01T13:21:54.673Z,100747.02
2022-09-01T13:24:26.408Z,100747.19
2022-09-01T13:29:45.313Z,100743.40
2022-09-01T13:32:27.774Z,100745.70
2022-09-01T13:34:55.043Z,100743.54
2022-09-01T13:37:22.959Z,100745.40
2022-09-01T13:39:51.055Z,100744.14
2022-09-01T13:42:18.785Z,100743.73
2022-09-01T13:44:48.458Z,100740.34
2022-09-01T13:47:32.214Z,100740.48
2022-09-01T13:50:11.404Z,100741.31
2022-09-01T13:52:43.715Z,100739.31
2022-09-01T13:55:13.872Z,100737.33
2022-09-01T13:57:41.101Z,100736.66
2022-09-01T14:00:12.011Z,100738.20
2022-09-01T14:02:42.575Z,100741.43
2022-09-01T14:05:10.131Z,100735.92
2022-09-01T14:07:37.311Z,100740.10
2022-09-01T14:10:09.238Z,100737.19
2022-09-01T14:12:36.960Z,100737.66
2022-09-01T14:15:15.965Z,100738.80
2022-09-01T14:17:46.263Z,100736.66
2022-09-01T14:20:18.576Z,100736.35
2022-09-01T14:22:48.223Z,100735.66
2022-09-01T14:25:19.805Z,100733.16
2022-09-01T14:27:49.328Z,100727.65
2022-09-01T14:30:22.316Z,100729.33
2022-09-01T14:32:51.875Z,100729.04
2022-09-01T14:35:23.677Z,100727.14
2022-09-01T14:37:52.944Z,100720.20
2022-09-01T14:40:24.541Z,100717.58
2022-09-01T14:42:53.625Z,100715.54
2022-09-01T14:45:28.410Z,100713.17
2022-09-01T14:48:01.158Z,100712.88
2022-09-01T14:50:32.289Z,100716.42
2022-09-01T14:53:02.390Z,100718.21
2022-09-01T14:55:32.675Z,100718.92
2022-09-01T14:58:00.950Z,100715.41
2022-09-01T15:00:29.509Z,100714.27
2022-09-01T15:02:57.995Z,100714.02
2022-09-01T15:05:26.772Z,100711.30
2022-09-01T15:07:55.513Z,100710.61
2022-09-01T15:10:26.089Z,100715.09
2022-09-01T15:12:56.264Z,100714.63
2022-09-01T15:15:25.144Z,100712.63
2022-09-01T15:17:54.286Z,100716.58
2022-09-01T15:20:41.179Z,100719.35
2022-09-01T15:23:10.590Z,100719.14
2022-09-01T15:25:40.174Z,100713.83
2022-09-01T15:28:09.523Z,100714.77
2022-09-01T15:30:38.470Z,100704.02
2022-09-01T15:33:13.238Z,100711.81
2022-09-01T15:35:46.592Z,100710.34
2022-09-01T15:38:17.522Z,100710.53
2022-09-01T15:40:47.339Z,100714.09
2022-09-01T15:43:28.202Z,100713.08
2022-09-01T15:45:58.018Z,100711.70
2022-09-01T15:48:28.096Z,100711.53
2022-09-01T15:51:21.362Z,100706.98
2022-09-01T15:53:56.121Z,100705.26
2022-09-01T15:56:24.548Z,100702.02
2022-09-01T15:59:07.732Z,100698.69
2022-09-01T16:01:42.058Z,100694.37
2022-09-01T16:04:18.413Z,100692.38
2022-09-01T16:06:51.931Z,100695.07
2022-09-01T16:09:22.331Z,100697.39
2022-09-01T16:11:51.882Z,100689.39
2022-09-01T16:14:23.648Z,100694.61
2022-09-01T16:16:59.639Z,100692.55
2022-09-01T16:19:58.515Z,100697.27
2022-09-01T16:22:37.394Z,100699.23
2022-09-01T16:25:19.085Z,100698.11
2022-09-01T16:27:47.033Z,100696.70
2022-09-01T16:30:21.930Z,100698.21
2022-09-01T16:32:49.836Z,100692.42
2022-09-01T16:35:20.095Z,100693.76
2022-09-01T16:38:25.169Z,100692.95
2022-09-01T16:41:23.617Z,100698.97
2022-09-01T16:43:54.629Z,100696.42
2022-09-01T16:46:34.863Z,100701.98
2022-09-01T16:49:14.337Z,100701.51
2022-09-01T16:52:23.714Z,100699.92
2022-09-01T16:55:15.491Z,100696.41
2022-09-01T16:58:09.180Z,100695.98
2022-09-01T17:01:10.030Z,100696.36
2022-09-01T17:04:12.558Z,100699.92
2022-09-01T17:07:06.449Z,100698.52
2022-09-01T17:09:45.615Z,100700.63
2022-09-01T17:12:23.553Z,100702.14
2022-09-01T17:15:14.552Z,100700.00
2022-09-01T17:17:50.707Z,100704.77
2022-09-01T17:20:27.888Z,100706.31
2022-09-01T17:23:00.466Z,100712.19
2022-09-01T17:25:42.850Z,100710.05
2022-09-01T17:28:20.626Z,100708.42
2022-09-01T17:31:00.413Z,100708.58
2022-09-01T17:33:46.169Z,100707.73
2022-09-01T17:36:46.666Z,100713.30
2022-09-01T17:39:36.680Z,100714.52
2022-09-01T17:42:24.577Z,100722.63
2022-09-01T17:44:55.775Z,100732.27
2022-09-01T17:47:24.161Z,100736.70
2022-09-01T17:50:14.960Z,100743.04
2022-09-01T17:53:26.858Z,100745.98
2022-09-01T17:56:01.542Z,100750.48
2022-09-01T17:58:47.987Z,100754.96
2022-09-01T18:01:34.318Z,100759.90
2022-09-01T18:04:23.340Z,100756.59
2022-09-01T18:07:04.738Z,100765.17
2022-09-01T18:09:43.275Z,100762.52
2022-09-01T18:12:17.464Z,100759.25
2022-09-01T18:14:55.907Z,100761.87
2022-09-01T18:17:38.704Z,100761.64
2022-09-01T18:20:49.016Z,100760.36
2022-09-01T18:23:20.879Z,100765.44
2022-09-01T18:25:57.384Z,100755.02
2022-09-01T18:28:25.862Z,100771.38
2022-09-01T18:31:06.401Z,100772.66
2022-09-01T18:33:40.367Z,100775.66
2022-09-01T18:36:13.639Z,100775.77
2022-09-01T18:38:57.581Z,100778.53
2022-09-01T18:41:48.988Z,100779.27
2022-09-01T18:44:38.494Z,100782.19
2022-09-01T18:47:11.165Z,100781.70
2022-09-01T18:49:47.533Z,100777.02
2022-09-01T18:53:00.470Z,100788.20
2022-09-01T18:55:41.013Z,100789.29
2022-09-01T18:58:34.273Z,100793.64
2022-09-01T19:01:12.660Z,100791.63
2022-09-01T19:04:18.808Z,100792.31
2022-09-01T19:07:03.730Z,100789.41
2022-09-01T19:09:36.925Z,100789.04
2022-09-01T19:12:36.266Z,100790.15
2022-09-01T19:15:16.193Z,100794.02
2022-09-01T19:18:04.812Z,100794.94
2022-09-01T19:20:37.846Z,100794.02
2022-09-01T19:23:37.409Z,100794.67
2022-09-01T19:26:11.735Z,100792.19
2022-09-01T19:29:09.459Z,100792.79
2022-09-01T19:31:42.605Z,100789.89
2022-09-01T19:34:16.292Z,100790.58
2022-09-01T19:36:53.637Z,100788.88
2022-09-01T19:39:30.542Z,100790.23
2022-09-01T19:42:25.338Z,100790.27
2022-09-01T19:45:07.465Z,100792.95
2022-09-01T19:47:45.256Z,100798.34
2022-09-01T19:50:21.221Z,100803.77
2022-09-01T19:53:02.388Z,100800.02
2022-09-01T19:55:41.720Z,100801.75
2022-09-01T19:58:19.022Z,100800.42
2022-09-01T20:00:56.793Z,100799.52
2022-09-01T20:03:35.137Z,100806.42
2022-09-01T20:06:07.077Z,100807.55
2022-09-01T20:08:54.199Z,100806.30
2022-09-01T20:11:35.506Z,100795.60
2022-09-01T20:14:20.527Z,100801.65
2022-09-01T20:16:51.293Z,100801.17
2022-09-01T20:19:24.883Z,100801.03
2022-09-01T20:21:55.423Z,100804.67
2022-09-01T20:24:33.835Z,100800.62
2022-09-01T20:27:39.215Z,100808.26
2022-09-01T20:30:16.772Z,100809.25
2022-09-01T20:33:10.597Z,100809.62
2022-09-01T20:36:08.658Z,100814.52
2022-09-01T20:39:05.371Z,100815.76
2022-09-01T20:41:39.625Z,100817.73
2022-09-01T20:44:15.918Z,100817.05
2022-09-01T20:46:43.265Z,100819.73
2022-09-01T20:49:15.779Z,100819.70
2022-09-01T20:51:52.767Z,100817.48
2022-09-01T20:54:40.537Z,100817.63
2022-09-01T20:57:17.538Z,100817.30
2022-09-01T20:59:50.402Z,100815.48
2022-09-01T21:02:47.411Z,100817.20
2022-09-01T21:05:18.143Z,100818.50
2022-09-01T21:08:14.794Z,100821.55
2022-09-01T21:10:51.463Z,100822.45
2022-09-01T21:13:43.231Z,100823.37
2022-09-01T21:16:33.537Z,100823.65
2022-09-01T21:19:18.854Z,100822.40
2022-09-01T21:21:51.639Z,100821.55
2022-09-01T21:24:19.090Z,100821.95
2022-09-01T21:26:48.407Z,100819.92
2022-09-01T21:29:49.464Z,100823.70
2022-09-01T21:32:17.000Z,100820.58
2022-09-01T21:34:45.210Z,100821.73
2022-09-01T21:37:13.250Z,100821.08
2022-09-01T21:39:40.908Z,100819.08
2022-09-01T21:42:11.709Z,100820.66
2022-09-01T21:44:40.110Z,100823.05
2022-09-01T21:47:07.262Z,100819.07
2022-09-01T21:49:34.222Z,100815.30
2022-09-01T21:52:01.591Z,100815.02
2022-09-01T21:54:28.666Z,100813.48
2022-09-01T21:56:55.584Z,100811.83
2022-09-01T21:59:22.918Z,100808.72
2022-09-01T22:01:50.071Z,100810.13
2022-09-01T22:04:18.140Z,100808.06
2022-09-01T22:06:45.995Z,100803.77
2022-09-01T22:09:21.337Z,100804.27
2022-09-01T22:11:50.749Z,100805.63
2022-09-01T22:14:19.281Z,100806.13
2022-09-01T22:16:47.693Z,100803.33
2022-09-01T22:19:15.061Z,100805.16
2022-09-01T22:21:42.450Z,100803.70
2022-09-01T22:24:09.870Z,100803.92
2022-09-01T22:26:36.711Z,100798.42
2022-09-01T22:29:06.175Z,100798.88
2022-09-01T22:31:36.145Z,100800.98
2022-09-01T22:34:04.420Z,100802.11
2022-09-01T22:36:37.845Z,100800.59
2022-09-01T22:39:06.288Z,100802.96
2022-09-01T22:41:37.857Z,100802.90
2022-09-01T22:44:05.128Z,100802.45
2022-09-01T22:46:34.450Z,100804.31
2022-09-01T22:49:01.777Z,100802.00
2022-09-01T22:51:29.104Z,100802.80
2022-09-01T22:53:56.256Z,100800.51
2022-09-01T22:56:29.580Z,100797.67
2022-09-01T22:59:00.721Z,100804.16
2022-09-01T23:01:31.286Z,100802.39
2022-09-01T23:04:03.913Z,100799.13
2022-09-01T23:06:32.866Z,100802.13
2022-09-01T23:09:01.916Z,100802.85
2022-09-01T23:11:28.963Z,100799.59
2022-09-01T23:13:55.869Z,100797.03
2022-09-01T23:16:24.420Z,100800.08
2022-09-01T23:18:54.467Z,100803.23
2022-09-01T23:21:28.208Z,100803.16
2022-09-01T23:23:58.744Z,100805.55
2022-09-01T23:26:27.624Z,100806.24
2022-09-01T23:28:55.067Z,100808.13
2022-09-01T23:31:24.641Z,100806.87
2022-09-01T23:33:51.780Z,100808.17
2022-09-01T23:36:21.627Z,100809.27
2022-09-01T23:38:49.427Z,100806.95
2022-09-01T23:41:22.552Z,100804.36
2022-09-01T23:43:51.179Z,100803.54
2022-09-01T23:46:20.890Z,100804.38
2022-09-01T23:48:47.711Z,100806.10
2022-09-01T23:51:17.537Z,100804.51
2022-09-01T23:53:46.435Z,100804.82
2022-09-01T23:56:20.022Z,100800.98
2022-09-01T23:58:48.411Z,100799.80
